Rosemary Beach, Florida
Current Conditions -  °F | °C
As of 6:53 AM on Friday 24 Oct 2014 (Local Time) from KECP Reporting Station
Clear Clear  
Wind Chill: 50°   Ceiling: Unl
Heat Index: 50°   Visibility: 9mi
Dew Point: 46°   Wind: 3mph
Humidity: 86%   Direction: 330°NNW
Pressure: 30.04"   Gusts: NA
Location:  30.2534°N, 85.9486°W
Report Text: KECP 241153Z 33003KT 9SM CLR 10/08 A3004 RMK AO2 SLP184 T01000078 10128 20094 51010
Loading
Personal Weather Stations






























Interactive Weather Map
Tropical Storm Tracking
New forecast layout! Learn more

10-Day Weather Forecast

Advertisements
Track Severe Weather on mobile